| time (UTC) | temp F | wind direction | speed knots | gust knots | rain 1hr in | rain 24hr in | rain mn in | humidity % | barometer mb |
| 20260510220019 | 76 | 23 | 1.7 | 5.2 | 0.28 | 0.40 | 0.28 | 86 | 1014.4 |
| 20260510215020 | 76 | 68 | 3.5 | 7.0 | 0.28 | 0.44 | 0.28 | 86 | 1014.5 |
| 20260510214037 | 76 | 23 | 2.6 | 6.1 | 0.28 | 0.56 | 0.28 | 86 | 1014.4 |
| 20260510213020 | 76 | 23 | 1.7 | 5.2 | 0.28 | 0.56 | 0.28 | 85 | 1014.5 |
| 20260510212019 | 76 | 338 | 2.6 | 5.2 | 0.28 | 0.56 | 0.28 | 83 | 1014.7 |
| 20260510211017 | 79 | 0 | 6.1 | 15.6 | 0.18 | 0.46 | 0.18 | 80 | 1013.9 |
| 20260510210040 | 82 | 0 | 5.2 | 8.7 | 0.00 | 0.28 | 0.00 | 77 | 1014.1 |
| 20260510205019 | 84 | 23 | 4.3 | 10.4 | 0.00 | 0.28 | 0.00 | 77 | 1014.0 |
| 20260510204019 | 86 | 45 | 4.3 | 13.9 | 0.00 | 0.28 | 0.00 | 77 | 1013.8 |
| 20260510203016 | 88 | 68 | 4.3 | 12.2 | 0.00 | 0.28 | 0.00 | 73 | 1013.8 |
| 20260510202020 | 91 | 23 | 3.5 | 7.8 | 0.00 | 0.28 | 0.00 | 66 | 1013.8 |
| 20260510201019 | 91 | 270 | 0.9 | 2.6 | 0.00 | 0.28 | 0.00 | 61 | 1013.6 |
| 20260510200017 | 92 | 270 | 0.9 | 3.5 | 0.00 | 0.28 | 0.00 | 63 | 1013.4 |
| 20260510195019 | 92 | 270 | 1.7 | 3.5 | 0.00 | 0.28 | 0.00 | 58 | 1013.4 |
| 20260510194020 | 92 | 270 | 1.7 | 3.5 | 0.00 | 0.28 | 0.00 | 58 | 1013.4 |
| 20260510193040 | 92 | 338 | 2.6 | 5.2 | 0.00 | 0.28 | 0.00 | 60 | 1013.5 |
| 20260510192017 | 92 | 270 | 0.9 | 3.5 | 0.00 | 0.28 | 0.00 | 59 | 1013.5 |
| 20260510191020 | 93 | 248 | 0.9 | 2.6 | 0.00 | 0.28 | 0.00 | 57 | 1013.6 |
| 20260510190019 | 93 | 248 | 1.7 | 6.1 | 0.00 | 0.28 | 0.00 | 55 | 1013.7 |
| 20260510185019 | 93 | 225 | 0.9 | 2.6 | 0.00 | 0.28 | 0.00 | 58 | 1013.8 |
| 20260510184019 | 93 | 270 | 1.7 | 5.2 | 0.00 | 0.28 | 0.00 | 59 | 1014.0 |
| 20260510183020 | 92 | 248 | 1.7 | 5.2 | 0.00 | 0.28 | 0.00 | 59 | 1014.1 |
| 20260510182019 | 92 | 248 | 1.7 | 6.1 | 0.00 | 0.28 | 0.00 | 58 | 1014.1 |
| 20260510181017 | 92 | 270 | 1.7 | 3.5 | 0.00 | 0.28 | 0.00 | 56 | 1014.2 |
| 20260510180019 | 92 | 270 | 0.9 | 3.5 | 0.00 | 0.28 | 0.00 | 62 | 1014.4 |
| 20260510175016 | 91 | 225 | 0.9 | 2.6 | 0.00 | 0.28 | 0.00 | 61 | 1014.6 |
| 20260510174020 | 91 | 225 | 2.6 | 6.1 | 0.00 | 0.28 | 0.00 | 62 | 1014.6 |
| 20260510173019 | 91 | 248 | 2.6 | 7.0 | 0.00 | 0.28 | 0.00 | 60 | 1014.7 |
| 20260510172019 | 91 | 248 | 2.6 | 6.1 | 0.00 | 0.28 | 0.00 | 63 | 1014.6 |
| 20260510171019 | 90 | 293 | 1.7 | 4.3 | 0.00 | 0.28 | 0.00 | 64 | 1014.8 |
| 20260510170017 | 90 | 248 | 1.7 | 4.3 | 0.00 | 0.28 | 0.00 | 65 | 1015.1 |
| 20260510165019 | 91 | 248 | 2.6 | 6.1 | 0.00 | 0.28 | 0.00 | 64 | 1015.2 |
| 20260510164016 | 90 | 225 | 2.6 | 5.2 | 0.00 | 0.28 | 0.00 | 64 | 1015.3 |
| 20260510163019 | 90 | 225 | 1.7 | 7.0 | 0.00 | 0.28 | 0.00 | 69 | 1015.3 |
| 20260510162020 | 89 | 225 | 1.7 | 4.3 | 0.00 | 0.28 | 0.00 | 69 | 1015.3 |
| 20260510161020 | 88 | 248 | 0.9 | 1.7 | 0.00 | 0.28 | 0.00 | 72 | 1015.5 |
| 20260510160019 | 88 | 248 | 1.7 | 2.6 | 0.00 | 0.28 | 0.00 | 72 | 1015.5 |
| 20260510155057 | 87 | 248 | 1.7 | 4.3 | 0.00 | 0.28 | 0.00 | 73 | 1015.6 |
| 20260510154019 | 86 | 248 | 1.7 | 4.3 | 0.00 | 0.28 | 0.00 | 73 | 1015.7 |
| 20260510153057 | 86 | 248 | 1.7 | 4.3 | 0.00 | 0.28 | 0.00 | 76 | 1015.6 |
| 20260510152019 | 85 | 248 | 3.5 | 7.0 | 0.00 | 0.28 | 0.00 | 74 | 1015.5 |
| 20260510151019 | 85 | 248 | 1.7 | 4.3 | 0.00 | 0.28 | 0.00 | 75 | 1015.4 |
| 20260510150040 | 84 | 248 | 0.9 | 3.5 | 0.00 | 0.28 | 0.00 | 79 | 1015.3 |
| 20260510145019 | 83 | 248 | 1.7 | 4.3 | 0.00 | 0.28 | 0.00 | 81 | 1015.4 |
| 20260510144039 | 82 | 270 | 1.7 | 2.6 | 0.00 | 0.28 | 0.00 | 83 | 1015.3 |
| 20260510143019 | 81 | 225 | 1.7 | 4.3 | 0.00 | 0.28 | 0.00 | 86 | 1015.4 |
| 20260510142019 | 81 | 225 | 1.7 | 3.5 | 0.00 | 0.28 | 0.00 | 87 | 1015.3 |
| 20260510141019 | 80 | 225 | 0.9 | 2.6 | 0.00 | 0.28 | 0.00 | 88 | 1015.2 |
| 20260510140019 | 80 | 0.0 | 1.7 | 0.00 | 0.28 | 0.00 | 90 | 1015.0 | |
| 20260510135016 | 79 | 225 | 0.9 | 3.5 | 0.00 | 0.28 | 0.00 | 91 | 1014.9 |
| 20260510134016 | 79 | 225 | 0.9 | 2.6 | 0.00 | 0.28 | 0.00 | 92 | 1014.9 |
| 20260510133019 | 79 | 0.0 | 1.7 | 0.00 | 0.28 | 0.00 | 93 | 1014.8 | |
| 20260510132037 | 78 | 248 | 0.9 | 1.7 | 0.00 | 0.28 | 0.00 | 93 | 1014.7 |
| 20260510131039 | 78 | 270 | 0.9 | 2.6 | 0.00 | 0.28 | 0.00 | 93 | 1014.8 |
| 20260510130019 | 78 | 270 | 1.7 | 2.6 | 0.00 | 0.28 | 0.00 | 94 | 1014.8 |
| 20260510125019 | 77 | 270 | 0.9 | 2.6 | 0.00 | 0.28 | 0.00 | 94 | 1014.7 |
| 20260510124016 | 76 | 270 | 1.7 | 2.6 | 0.00 | 0.28 | 0.00 | 94 | 1014.7 |
| 20260510123019 | 76 | 0.0 | 0.0 | 0.00 | 0.28 | 0.00 | 94 | 1014.6 | |
| 20260510122016 | 75 | 293 | 0.9 | 1.7 | 0.00 | 0.28 | 0.00 | 93 | 1014.3 |
| 20260510121036 | 75 | 293 | 0.9 | 1.7 | 0.00 | 0.28 | 0.00 | 94 | 1014.3 |
| 20260510120019 | 74 | 0.0 | 0.9 | 0.00 | 0.28 | 0.00 | 93 | 1014.2 | |
| 20260510115019 | 74 | 338 | 0.9 | 1.7 | 0.00 | 0.28 | 0.00 | 93 | 1014.2 |
| 20260510114019 | 74 | 338 | 0.9 | 2.6 | 0.00 | 0.28 | 0.00 | 93 | 1014.0 |
| 20260510113036 | 73 | 0.0 | 0.0 | 0.00 | 0.28 | 0.00 | 93 | 1013.7 | |
| 20260510112019 | 72 | 0.0 | 0.0 | 0.00 | 0.28 | 0.00 | 93 | 1013.8 | |
| 20260510111019 | 72 | 0.0 | 0.0 | 0.00 | 0.28 | 0.00 | 93 | 1013.5 | |
| 20260510110019 | 72 | 0.0 | 0.0 | 0.00 | 0.28 | 0.00 | 93 | 1013.4 | |
| 20260510105019 | 72 | 0.0 | 0.0 | 0.00 | 0.28 | 0.00 | 93 | 1013.2 | |
| 20260510104019 | 72 | 0.0 | 0.0 | 0.00 | 0.28 | 0.00 | 93 | 1013.1 | |
| 20260510103019 | 72 | 0.0 | 0.0 | 0.00 | 0.28 | 0.00 | 93 | 1013.0 | |
| 20260510102016 | 72 | 0.0 | 0.0 | 0.00 | 0.28 | 0.00 | 93 | 1012.8 | |
| 20260510101039 | 72 | 0.0 | 0.0 | 0.00 | 0.28 | 0.00 | 93 | 1012.7 | |
| 20260510100016 | 72 | 0.0 | 0.0 | 0.00 | 0.28 | 0.00 | 93 | 1012.6 | |
| 20260510095019 | 72 | 0.0 | 0.0 | 0.00 | 0.28 | 0.00 | 93 | 1012.7 | |
| 20260510094019 | 72 | 0.0 | 0.0 | 0.00 | 0.28 | 0.00 | 93 | 1012.6 | |
| 20260510093019 | 72 | 0.0 | 0.0 | 0.00 | 0.28 | 0.00 | 93 | 1012.6 | |
| 20260510092019 | 72 | 0.0 | 0.0 | 0.00 | 0.28 | 0.00 | 92 | 1012.6 | |
| 20260510091016 | 72 | 0.0 | 0.0 | 0.00 | 0.28 | 0.00 | 93 | 1012.5 | |
| 20260510090019 | 72 | 0.0 | 0.0 | 0.00 | 0.28 | 0.00 | 92 | 1012.5 | |
| 20260510085037 | 72 | 0.0 | 0.0 | 0.00 | 0.28 | 0.00 | 92 | 1012.5 | |
| 20260510084019 | 72 | 0.0 | 0.0 | 0.00 | 0.28 | 0.00 | 93 | 1012.2 | |
| 20260510083039 | 72 | 0.0 | 0.0 | 0.00 | 0.28 | 0.00 | 93 | 1012.2 | |
| 20260510082019 | 72 | 0.0 | 0.0 | 0.00 | 0.28 | 0.00 | 93 | 1012.4 | |
| 20260510081019 | 72 | 0.0 | 0.0 | 0.00 | 0.28 | 0.00 | 92 | 1012.7 | |
| 20260510080016 | 72 | 0.0 | 0.0 | 0.00 | 0.28 | 0.00 | 93 | 1012.5 | |
| 20260510075019 | 72 | 0.0 | 0.0 | 0.00 | 0.28 | 0.00 | 92 | 1012.5 | |
| 20260510074036 | 72 | 0.0 | 0.0 | 0.00 | 0.28 | 0.00 | 92 | 1012.5 | |
| 20260510073019 | 72 | 0.0 | 0.0 | 0.00 | 0.28 | 0.00 | 92 | 1012.4 | |
| 20260510072019 | 72 | 0.0 | 0.0 | 0.00 | 0.28 | 0.00 | 92 | 1012.5 | |
| 20260510071040 | 73 | 0.0 | 0.0 | 0.00 | 0.28 | 0.00 | 92 | 1012.4 | |
| 20260510070019 | 72 | 0.0 | 0.0 | 0.00 | 0.28 | 0.00 | 92 | 1012.5 | |
| 20260510065016 | 72 | 0.0 | 0.0 | 0.00 | 0.28 | 0.00 | 92 | 1012.4 | |
| 20260510064036 | 73 | 0.0 | 0.0 | 0.00 | 0.28 | 0.00 | 92 | 1012.5 | |
| 20260510063019 | 73 | 0.0 | 0.0 | 0.00 | 0.28 | 0.00 | 92 | 1012.6 | |
| 20260510062019 | 73 | 0.0 | 0.0 | 0.00 | 0.28 | 0.00 | 92 | 1012.9 | |
| 20260510061019 | 73 | 0.0 | 0.0 | 0.00 | 0.28 | 0.00 | 92 | 1013.0 | |
| 20260510060019 | 73 | 0.0 | 0.0 | 0.00 | 0.28 | 0.00 | 92 | 1013.1 | |
| 20260510055019 | 73 | 0.0 | 0.0 | 0.00 | 0.28 | 0.00 | 92 | 1013.2 | |
| 20260510054016 | 73 | 0.0 | 0.0 | 0.00 | 0.28 | 0.00 | 92 | 1013.4 | |
| 20260510053016 | 73 | 0.0 | 0.0 | 0.00 | 0.28 | 0.00 | 92 | 1013.5 | |
| 20260510052019 | 73 | 0.0 | 0.0 | 0.00 | 0.28 | 0.00 | 92 | 1013.6 | |
| 20260510051039 | 73 | 0.0 | 0.0 | 0.00 | 0.28 | 0.00 | 92 | 1013.7 | |
| 20260510050019 | 73 | 0.0 | 0.0 | 0.00 | 0.28 | 0.00 | 92 | 1013.6 | |
| 20260510045019 | 73 | 0.0 | 0.0 | 0.00 | 0.28 | 0.00 | 91 | 1013.7 | |
| 20260510044019 | 73 | 0.0 | 0.0 | 0.00 | 0.28 | 0.00 | 92 | 1013.7 | |
| 20260510043119 | 74 | 0.0 | 0.0 | 0.00 | 0.28 | 0.00 | 92 | 1013.8 | |
| 20260510042036 | 74 | 0.0 | 0.0 | 0.00 | 0.28 | 0.00 | 91 | 1013.7 | |
| 20260510041019 | 74 | 0.0 | 0.0 | 0.00 | 0.28 | 0.00 | 91 | 1013.8 | |
| 20260510040019 | 74 | 0.0 | 0.0 | 0.00 | 0.28 | 0.00 | 91 | 1013.8 | |
| 20260510035017 | 74 | 0.0 | 0.0 | 0.00 | 0.37 | 0.28 | 91 | 1013.8 | |
| 20260510034020 | 74 | 0.0 | 1.7 | 0.00 | 0.56 | 0.28 | 91 | 1013.7 | |
| 20260510033020 | 74 | 45 | 0.9 | 2.6 | 0.00 | 0.68 | 0.28 | 91 | 1013.8 |
| 20260510032020 | 74 | 0.0 | 0.9 | 0.00 | 0.71 | 0.28 | 91 | 1013.9 | |
| 20260510031020 | 74 | 0.0 | 0.0 | 0.00 | 0.73 | 0.28 | 91 | 1013.9 | |
| 20260510030020 | 74 | 0.0 | 0.9 | 0.00 | 0.78 | 0.28 | 91 | 1013.9 | |
| 20260510025017 | 75 | 0.0 | 0.9 | 0.00 | 0.86 | 0.28 | 91 | 1013.8 | |
| 20260510024017 | 75 | 0.0 | 0.0 | 0.00 | 0.88 | 0.28 | 90 | 1013.8 | |
| 20260510023020 | 74 | 0.0 | 0.0 | 0.00 | 0.90 | 0.28 | 90 | 1013.7 | |
| 20260510022020 | 75 | 0.0 | 0.0 | 0.00 | 0.90 | 0.28 | 90 | 1013.7 | |
| 20260510021020 | 75 | 0.0 | 0.0 | 0.00 | 0.90 | 0.28 | 90 | 1013.4 | |
| 20260510020020 | 75 | 0.0 | 0.0 | 0.00 | 0.90 | 0.28 | 90 | 1013.3 | |
| 20260510015020 | 75 | 23 | 0.9 | 1.7 | 0.00 | 0.91 | 0.28 | 90 | 1013.2 |
| 20260510014037 | 75 | 0.0 | 0.0 | 0.00 | 0.91 | 0.28 | 90 | 1013.5 | |
| 20260510013017 | 75 | 0.0 | 0.0 | 0.00 | 0.91 | 0.28 | 89 | 1013.3 | |
| 20260510012020 | 75 | 0.0 | 0.9 | 0.00 | 0.91 | 0.28 | 89 | 1013.1 | |
| 20260510011020 | 75 | 0.0 | 1.7 | 0.00 | 0.91 | 0.28 | 89 | 1013.2 | |
| 20260510010040 | 75 | 23 | 0.9 | 1.7 | 0.00 | 0.91 | 0.28 | 89 | 1013.1 |
| 20260510005020 | 75 | 23 | 0.9 | 3.5 | 0.00 | 0.91 | 0.28 | 89 | 1012.9 |
| 20260510004020 | 75 | 68 | 1.7 | 4.3 | 0.00 | 0.91 | 0.28 | 89 | 1012.7 |
| 20260510003100 | 75 | 23 | 1.7 | 4.3 | 0.02 | 0.91 | 0.28 | 88 | 1012.4 |
| 20260510002017 | 75 | 23 | 1.7 | 4.3 | 0.02 | 0.91 | 0.28 | 88 | 1012.1 |
| 20260510001020 | 75 | 315 | 1.7 | 4.3 | 0.02 | 0.91 | 0.28 | 88 | 1012.1 |
| 20260510000020 | 75 | 0 | 1.7 | 3.5 | 0.02 | 0.91 | 0.28 | 87 | 1011.9 |
| 20260509235020 | 76 | 23 | 3.5 | 7.0 | 0.02 | 0.91 | 0.28 | 87 | 1011.8 |
| 20260509234020 | 76 | 23 | 2.6 | 5.2 | 0.03 | 0.91 | 0.28 | 86 | 1011.6 |
| 20260509233017 | 76 | 23 | 3.5 | 10.4 | 0.01 | 0.89 | 0.26 | 86 | 1011.7 |
| 20260509232020 | 76 | 23 | 5.2 | 9.6 | 0.01 | 0.89 | 0.26 | 85 | 1011.5 |
| 20260509231017 | 76 | 45 | 3.5 | 9.6 | 0.01 | 0.89 | 0.26 | 85 | 1011.3 |
| 20260509230040 | 76 | 23 | 4.3 | 9.6 | 0.10 | 0.89 | 0.26 | 85 | 1011.0 |
| 20260509225020 | 76 | 23 | 5.2 | 12.2 | 0.14 | 0.89 | 0.26 | 83 | 1010.9 |
| 20260509224020 | 77 | 23 | 6.1 | 13.9 | 0.25 | 0.88 | 0.25 | 82 | 1011.1 |
| 20260509223020 | 78 | 0 | 5.2 | 11.3 | 0.25 | 0.88 | 0.25 | 83 | 1010.9 |
| 20260509222017 | 78 | 0 | 2.6 | 7.0 | 0.25 | 0.88 | 0.25 | 82 | 1011.1 |
| 20260509221020 | 79 | 338 | 3.5 | 7.0 | 0.25 | 0.88 | 0.25 | 81 | 1011.2 |